Bookmark and Share
Track history (hours):
 

Nanticoke

Last reported at 2014-Apr-13 14:30 UTC. Time now 2014-Apr-17 06:53 UTC.
Position N 44°03' W 076°27'.

Length 222 m; draft 7.8 m.

Type: Cargo ship. MMSI: 316043000.

NotesDate/timePositionNaut miles runAvg speedWind from/ knotsBaromVisibWave heightAir tempDewpointWater temp
2014-Apr-13 14:30N 44°03' W 076°27'1111.1
2014-Apr-13 13:33N 44°11' W 076°19'97 6.0
2014-Apr-12 21:16N 45°08' W 074°27'8 9.9
2014-Apr-12 20:28N 45°12' W 074°18'8 9.1
2014-Apr-12 19:34N 45°13' W 074°06'8 7.6
2014-Apr-12 18:33N 45°17' W 073°57'2 1.9
2014-Apr-12 17:34N 45°19' W 073°55'0 0.5
2014-Apr-12 16:33N 45°19' W 073°55'2 1.6
2014-Apr-12 15:33N 45°20' W 073°54'9 9.0
2014-Apr-12 14:34N 45°25' W 073°43'5 5.5
2014-Apr-12 13:33N 45°24' W 073°35'1 1.0
2014-Apr-12 12:33N 45°24' W 073°33'3 2.9
2014-Apr-12 11:34N 45°26' W 073°30'4 3.5
2014-Apr-12 10:33N 45°30' W 073°31'3 2.8
2014-Apr-12 09:33N 45°32' W 073°32'2 2.3
2014-Apr-12 08:34N 45°35' W 073°30'5 5.0
2014-Apr-12 07:34N 45°39' W 073°28'9 9.0
2014-Apr-12 06:34N 45°47' W 073°21'9 9.4
2014-Apr-12 05:33N 45°54' W 073°13'20 8.6
2014-Apr-12 03:16N 46°10' W 072°56'710.4
2014-Apr-12 02:34N 46°14' W 072°47'10 9.6
2014-Apr-12 01:34N 46°18' W 072°34'8 7.7
2014-Apr-12 00:33N 46°23' W 072°26'9 9.1
2014-Apr-11 23:34N 46°28' W 072°15'9 8.2
2014-Apr-11 22:26N 46°34' W 072°05'7 8.4
2014-Apr-11 21:34N 46°38' W 071°56'  
2014-Apr-09 06:08N 46°33' W 072°08'814.6
2014-Apr-09 05:33N 46°27' W 072°16'1413.6
2014-Apr-09 04:33N 46°20' W 072°33'1010.3
2014-Apr-09 03:33N 46°14' W 072°46'3112.6
2014-Apr-09 01:06N 45°52' W 073°16'814.1
2014-Apr-09 00:33N 45°46' W 073°23'1312.9
2014-Apr-08 23:33N 45°34' W 073°31'4 4.4
2014-Apr-08 22:33N 45°30' W 073°31'3 2.7
2014-Apr-08 21:33N 45°27' W 073°30'4 3.7
2014-Apr-08 20:33N 45°24' W 073°34'0 0.2
2014-Apr-08 19:33N 45°24' W 073°34'0 0.2
2014-Apr-08 18:33N 45°24' W 073°34'4 3.7
2014-Apr-08 17:33N 45°24' W 073°39'7 6.7
2014-Apr-08 16:33N 45°23' W 073°49'7 6.7
2014-Apr-08 15:33N 45°24' W 073°39'3 2.6
2014-Apr-08 14:33N 45°24' W 073°35'0 0.0
2014-Apr-08 13:33N 45°24' W 073°35'0 0.0
2014-Apr-08 12:33N 45°24' W 073°35'0 0.0
2014-Apr-08 11:33N 45°24' W 073°35'0 0.0
2014-Apr-08 10:33N 45°24' W 073°35'0 0.0
2014-Apr-08 09:33N 45°24' W 073°35'0 0.0
2014-Apr-08 08:33N 45°24' W 073°35'0 0.0
2014-Apr-08 07:33N 45°24' W 073°35'0 0.0
2014-Apr-08 06:33N 45°24' W 073°35'0 0.0
2014-Apr-08 05:33N 45°24' W 073°35'0 0.0
2014-Apr-08 04:33N 45°24' W 073°35'0 0.0
2014-Apr-08 03:33N 45°24' W 073°35'0 0.0
2014-Apr-08 02:28N 45°24' W 073°35'0 0.0
2014-Apr-08 01:33N 45°24' W 073°35'0 0.0
2014-Apr-08 00:33N 45°24' W 073°35'0 0.0
2014-Apr-07 23:33N 45°24' W 073°35'0 0.0
2014-Apr-07 22:33N 45°24' W 073°35'1 1.1
2014-Apr-07 21:33N 45°24' W 073°34'2 2.3
2014-Apr-07 20:33N 45°25' W 073°31'5 4.7
2014-Apr-07 19:33N 45°30' W 073°31'7 3.3
2014-Apr-07 17:33N 45°36' W 073°30'7 7.2
2014-Apr-07 16:33N 45°43' W 073°26'9 9.4
2014-Apr-07 15:33N 45°50' W 073°17'19 8.4
2014-Apr-07 13:18N 46°05' W 073°01'8 9.4
2014-Apr-07 12:29N 46°11' W 072°54'1010.3
2014-Apr-07 11:33N 46°16' W 072°42'8 8.0
2014-Apr-07 10:33N 46°20' W 072°32'7 7.3
2014-Apr-07 09:33N 46°24' W 072°24'9 8.7
2014-Apr-07 08:32N 46°30' W 072°14'  

Dump ship's entire track history

sailing weather and tide predictions

Nanticoke — VCQL — position and weather